createdAt,value
2017-11-13T00:00:34.425Z,4.93
2017-11-13T00:03:03.208Z,5.45
2017-11-13T00:05:31.965Z,5.10
2017-11-13T00:08:00.698Z,5.50
2017-11-13T00:10:29.734Z,7.47
2017-11-13T00:12:59.240Z,5.80
2017-11-13T00:15:28.900Z,6.20
2017-11-13T00:17:57.661Z,6.32
2017-11-13T00:20:26.397Z,6.57
2017-11-13T00:22:55.223Z,6.20
2017-11-13T00:25:24.828Z,6.30
2017-11-13T00:27:54.327Z,6.47
2017-11-13T00:30:23.892Z,6.10
2017-11-13T00:32:52.624Z,6.55
2017-11-13T00:35:22.136Z,6.12
2017-11-13T00:37:51.143Z,6.43
2017-11-13T00:40:20.633Z,6.72
2017-11-13T00:42:50.157Z,6.57
2017-11-13T00:45:18.961Z,5.78
2017-11-13T00:47:47.693Z,6.93
2017-11-13T00:50:16.420Z,7.28
2017-11-13T00:52:45.181Z,7.90
2017-11-13T00:55:13.907Z,7.15
2017-11-13T00:57:42.659Z,5.85
2017-11-13T01:00:10.700Z,6.68
2017-11-13T01:02:39.428Z,6.65
2017-11-13T01:05:08.165Z,6.93
2017-11-13T01:07:36.887Z,7.30
2017-11-13T01:10:05.620Z,7.28
2017-11-13T01:12:34.368Z,6.97
2017-11-13T01:15:03.138Z,7.35
2017-11-13T01:17:31.873Z,6.40
2017-11-13T01:20:01.397Z,6.55
2017-11-13T01:22:30.121Z,6.93
2017-11-13T01:24:58.853Z,7.10
2017-11-13T01:27:27.599Z,7.30
2017-11-13T01:29:56.329Z,7.03
2017-11-13T01:32:25.845Z,7.07
2017-11-13T01:34:54.868Z,6.68
2017-11-13T01:37:23.610Z,6.72
2017-11-13T01:39:52.748Z,7.95
2017-11-13T01:42:21.634Z,8.38
2017-11-13T01:44:50.377Z,7.90
2017-11-13T01:47:18.789Z,8.43
2017-11-13T01:49:47.531Z,7.10
2017-11-13T01:52:16.269Z,7.60
2017-11-13T01:54:45.033Z,6.80
2017-11-13T01:57:14.348Z,6.10
2017-11-13T01:59:43.857Z,7.05
2017-11-13T02:02:13.347Z,7.10
2017-11-13T02:04:43.020Z,7.12
2017-11-13T02:07:11.121Z,6.70
2017-11-13T02:09:39.514Z,7.47
2017-11-13T02:12:08.267Z,6.60
2017-11-13T02:14:36.648Z,7.12
2017-11-13T02:17:05.216Z,7.55
2017-11-13T02:19:33.277Z,7.57
2017-11-13T02:22:01.320Z,6.93
2017-11-13T02:24:30.492Z,7.50
2017-11-13T02:26:58.537Z,6.97
2017-11-13T02:29:26.562Z,7.40
2017-11-13T02:31:55.386Z,7.18
2017-11-13T02:34:23.467Z,7.07
2017-11-13T02:36:51.569Z,6.60
2017-11-13T02:39:19.612Z,6.93
2017-11-13T02:41:47.668Z,7.93
2017-11-13T02:44:15.700Z,7.75
2017-11-13T02:46:43.795Z,7.53
2017-11-13T02:49:12.984Z,7.40
2017-11-13T02:51:41.653Z,7.55
2017-11-13T02:54:09.703Z,7.30
2017-11-13T02:56:37.731Z,8.77
2017-11-13T02:59:05.770Z,7.00
2017-11-13T03:01:34.506Z,8.80
2017-11-13T03:04:03.264Z,9.20
2017-11-13T03:06:32.763Z,8.20
2017-11-13T03:09:02.285Z,9.63
2017-11-13T03:11:31.836Z,8.63
2017-11-13T03:14:00.594Z,9.55
2017-11-13T03:16:29.365Z,8.70
2017-11-13T03:18:58.905Z,8.70
2017-11-13T03:21:27.763Z,8.05
2017-11-13T03:23:57.293Z,8.27
2017-11-13T03:26:25.691Z,8.20
2017-11-13T03:28:54.412Z,7.90
2017-11-13T03:31:22.817Z,8.93
2017-11-13T03:33:52.321Z,8.32
2017-11-13T03:36:21.826Z,7.62
2017-11-13T03:38:50.562Z,7.78
2017-11-13T03:41:19.333Z,7.95
2017-11-13T03:43:48.057Z,7.97
2017-11-13T03:46:16.801Z,6.80
2017-11-13T03:48:45.534Z,7.65
2017-11-13T03:51:14.336Z,7.80
2017-11-13T03:53:43.065Z,8.05
2017-11-13T03:56:12.572Z,7.82
2017-11-13T03:58:41.312Z,8.20
2017-11-13T04:01:10.145Z,8.73
2017-11-13T04:03:39.649Z,9.48
2017-11-13T04:06:09.164Z,8.57
2017-11-13T04:08:38.677Z,8.90
2017-11-13T04:11:07.499Z,8.57
2017-11-13T04:13:36.243Z,8.65
2017-11-13T04:16:05.869Z,8.60
2017-11-13T04:18:34.613Z,7.95
2017-11-13T04:21:03.348Z,8.00
2017-11-13T04:23:32.116Z,9.75
2017-11-13T04:26:01.799Z,7.45
2017-11-13T04:28:30.552Z,8.70
2017-11-13T04:30:59.288Z,8.30
2017-11-13T04:33:28.037Z,9.20
2017-11-13T04:35:56.777Z,8.70
2017-11-13T04:38:26.292Z,8.80
2017-11-13T04:40:55.797Z,8.82
2017-11-13T04:43:25.432Z,8.13
2017-11-13T04:45:54.176Z,9.88
2017-11-13T04:48:23.844Z,9.82
2017-11-13T04:50:52.607Z,9.65
2017-11-13T04:53:21.336Z,9.70
2017-11-13T04:55:50.085Z,8.70
2017-11-13T04:58:18.833Z,8.80
2017-11-13T05:00:47.618Z,9.60
2017-11-13T05:03:17.292Z,9.50
2017-11-13T05:05:45.444Z,10.10
2017-11-13T05:08:14.174Z,8.43
2017-11-13T05:10:42.920Z,9.23
2017-11-13T05:13:11.249Z,11.23
2017-11-13T05:15:39.982Z,9.65
2017-11-13T05:18:09.303Z,9.75
2017-11-13T05:20:37.863Z,9.80
2017-11-13T05:23:07.385Z,10.07
2017-11-13T05:25:35.783Z,10.32
2017-11-13T05:28:04.881Z,9.73
2017-11-13T05:30:33.756Z,9.70
2017-11-13T05:33:02.514Z,11.10
2017-11-13T05:35:32.184Z,10.82
2017-11-13T05:38:00.952Z,10.30
2017-11-13T05:40:29.722Z,10.43
2017-11-13T05:42:59.017Z,11.55
2017-11-13T05:45:28.530Z,11.27
2017-11-13T05:47:57.428Z,12.07
2017-11-13T05:50:26.416Z,10.48
2017-11-13T05:52:55.180Z,10.13
2017-11-13T05:55:24.139Z,10.65
2017-11-13T05:57:52.892Z,11.15
2017-11-13T06:00:21.896Z,12.55
2017-11-13T06:02:50.636Z,11.18
2017-11-13T06:05:19.400Z,11.20
2017-11-13T06:07:48.187Z,12.63
2017-11-13T06:10:16.948Z,11.35
2017-11-13T06:12:45.717Z,12.57
2017-11-13T06:15:15.248Z,11.95
2017-11-13T06:17:44.241Z,11.85
2017-11-13T06:20:13.024Z,12.85
2017-11-13T06:22:42.693Z,11.32
2017-11-13T06:25:11.477Z,12.27
2017-11-13T06:27:40.409Z,11.27
2017-11-13T06:30:09.173Z,12.75
2017-11-13T06:32:38.690Z,13.35
2017-11-13T06:35:08.266Z,13.40
2017-11-13T06:37:37.055Z,13.30
2017-11-13T06:40:05.816Z,13.00
2017-11-13T06:42:34.616Z,12.73
2017-11-13T06:45:03.385Z,13.18
2017-11-13T06:47:32.141Z,13.30
2017-11-13T06:50:01.666Z,12.90
2017-11-13T06:52:30.687Z,13.23
2017-11-13T06:54:59.528Z,11.80
2017-11-13T06:57:29.056Z,12.75
2017-11-13T06:59:57.960Z,13.88
2017-11-13T07:02:26.707Z,11.57
2017-11-13T07:04:56.979Z,13.35
2017-11-13T07:07:25.722Z,13.30
2017-11-13T07:09:54.487Z,13.75
2017-11-13T07:12:23.232Z,14.87
2017-11-13T07:14:52.016Z,14.63
2017-11-13T07:17:21.548Z,13.90
2017-11-13T07:19:50.318Z,14.27
2017-11-13T07:22:19.141Z,13.52
2017-11-13T07:24:47.914Z,13.32
2017-11-13T07:27:16.816Z,12.73
2017-11-13T07:29:45.372Z,12.43
2017-11-13T07:32:14.137Z,13.10
2017-11-13T07:34:42.909Z,14.77
2017-11-13T07:37:11.677Z,14.87
2017-11-13T07:39:40.429Z,14.75
2017-11-13T07:42:09.012Z,13.00
2017-11-13T07:44:37.581Z,13.27
2017-11-13T07:47:07.165Z,12.32
2017-11-13T07:49:36.012Z,13.38
2017-11-13T07:52:04.760Z,13.05
2017-11-13T07:54:33.528Z,11.70
2017-11-13T07:57:02.282Z,12.75
2017-11-13T07:59:31.061Z,13.50
2017-11-13T08:01:59.807Z,11.40
2017-11-13T08:04:28.569Z,13.05
2017-11-13T08:06:57.312Z,12.68
2017-11-13T08:09:26.836Z,12.25
2017-11-13T08:11:55.716Z,11.55
2017-11-13T08:14:25.239Z,10.90
2017-11-13T08:16:54.072Z,11.30
2017-11-13T08:19:22.813Z,10.85
2017-11-13T08:21:51.596Z,11.25
2017-11-13T08:24:20.340Z,10.20
2017-11-13T08:26:49.111Z,9.70
2017-11-13T08:29:17.587Z,9.47
2017-11-13T08:31:46.330Z,8.85
2017-11-13T08:34:14.892Z,7.62
2017-11-13T08:36:44.133Z,7.40
2017-11-13T08:39:12.588Z,6.87
2017-11-13T08:41:41.337Z,6.00
2017-11-13T08:44:10.136Z,6.85
2017-11-13T08:46:38.863Z,6.20
2017-11-13T08:49:07.429Z,7.00
2017-11-13T08:51:36.172Z,7.15
2017-11-13T08:54:04.905Z,7.03
2017-11-13T08:56:33.661Z,7.28
2017-11-13T08:59:02.153Z,7.23
2017-11-13T09:01:30.637Z,8.10
2017-11-13T09:03:59.864Z,8.00
2017-11-13T09:06:29.104Z,7.70
2017-11-13T09:08:57.600Z,9.30
2017-11-13T09:11:26.084Z,10.20
2017-11-13T09:13:54.555Z,9.23
2017-11-13T09:16:23.048Z,10.63
2017-11-13T09:18:51.521Z,11.80
2017-11-13T09:21:20.027Z,11.17
2017-11-13T09:23:48.549Z,12.20
2017-11-13T09:26:17.027Z,12.10
2017-11-13T09:28:45.512Z,10.73
2017-11-13T09:31:13.988Z,11.20
2017-11-13T09:33:42.532Z,13.13
2017-11-13T09:36:10.648Z,11.23
2017-11-13T09:38:40.296Z,12.25
2017-11-13T09:41:09.076Z,11.60
2017-11-13T09:43:38.068Z,11.40
2017-11-13T09:46:06.879Z,9.88
2017-11-13T09:48:35.365Z,9.23
2017-11-13T09:51:03.863Z,9.70
2017-11-13T09:53:32.672Z,9.20
2017-11-13T09:56:01.922Z,6.87
2017-11-13T09:58:30.721Z,7.60
2017-11-13T10:00:59.628Z,7.47
2017-11-13T10:03:28.414Z,7.45
2017-11-13T10:05:57.002Z,9.50
2017-11-13T10:08:25.994Z,10.03
2017-11-13T10:10:54.567Z,9.37
2017-11-13T10:13:23.117Z,10.80
2017-11-13T10:15:51.707Z,9.50
2017-11-13T10:18:21.264Z,9.40
2017-11-13T10:20:50.221Z,9.98
2017-11-13T10:23:18.477Z,9.67
2017-11-13T10:25:46.446Z,8.97
2017-11-13T10:28:14.749Z,8.43
2017-11-13T10:30:43.772Z,8.55
2017-11-13T10:33:12.162Z,10.00
2017-11-13T10:35:41.478Z,8.70
2017-11-13T10:38:10.761Z,7.23
2017-11-13T10:40:39.345Z,7.90
2017-11-13T10:43:08.669Z,8.47
2017-11-13T10:45:36.852Z,8.50
2017-11-13T10:48:05.359Z,8.27
2017-11-13T10:50:33.889Z,8.10
2017-11-13T10:53:02.199Z,8.60
2017-11-13T10:55:30.539Z,9.10
2017-11-13T10:57:58.859Z,8.23
2017-11-13T11:00:26.509Z,8.30
2017-11-13T11:02:54.948Z,8.97
2017-11-13T11:05:23.292Z,7.60
2017-11-13T11:07:51.644Z,8.67
2017-11-13T11:10:20.792Z,8.10
2017-11-13T11:12:49.120Z,8.03
2017-11-13T11:15:33.998Z,6.90
2017-11-13T11:18:05.793Z,7.23
2017-11-13T11:20:35.041Z,7.03
2017-11-13T11:23:04.229Z,7.83
2017-11-13T11:25:33.061Z,7.37
2017-11-13T11:28:01.401Z,9.23
2017-11-13T11:30:48.589Z,9.30
2017-11-13T11:33:27.568Z,9.73
2017-11-13T11:36:15.834Z,9.50
2017-11-13T11:38:44.344Z,10.53
2017-11-13T11:41:13.616Z,11.00
2017-11-13T11:43:42.008Z,11.63
2017-11-13T11:46:10.419Z,9.50
2017-11-13T11:48:42.298Z,9.93
2017-11-13T11:51:10.811Z,10.47
2017-11-13T11:53:40.905Z,10.90
2017-11-13T11:56:19.296Z,11.90
2017-11-13T11:58:47.271Z,12.43
2017-11-13T12:01:15.234Z,11.73
2017-11-13T12:03:43.681Z,10.47
2017-11-13T12:06:13.096Z,10.33
2017-11-13T12:08:41.424Z,11.37
2017-11-13T12:11:09.927Z,12.40
2017-11-13T12:13:39.281Z,12.37
2017-11-13T12:16:07.841Z,11.60
2017-11-13T12:18:36.411Z,12.10
2017-11-13T12:21:05.005Z,13.07
2017-11-13T12:23:33.565Z,12.00
2017-11-13T12:26:02.116Z,13.03
2017-11-13T12:28:30.609Z,10.37
2017-11-13T12:30:59.117Z,9.53
2017-11-13T12:33:28.619Z,10.80
2017-11-13T12:35:58.036Z,9.23
2017-11-13T12:38:27.335Z,9.73
2017-11-13T12:40:56.620Z,10.23
2017-11-13T12:43:25.156Z,12.00
2017-11-13T12:45:53.688Z,10.37
2017-11-13T12:48:22.311Z,9.60
2017-11-13T12:50:50.827Z,10.80
2017-11-13T12:53:19.026Z,10.17
2017-11-13T12:55:49.044Z,9.10
2017-11-13T12:58:17.201Z,7.83
2017-11-13T13:00:45.380Z,7.77
2017-11-13T13:03:13.879Z,7.57
2017-11-13T13:05:42.730Z,7.10
2017-11-13T13:08:11.236Z,7.40
2017-11-13T13:10:39.748Z,8.60
2017-11-13T13:13:08.356Z,8.23
2017-11-13T13:15:36.898Z,9.77
2017-11-13T13:18:05.412Z,10.10
2017-11-13T13:20:34.690Z,8.40
2017-11-13T13:23:03.214Z,7.73
2017-11-13T13:25:31.528Z,7.03
2017-11-13T13:28:00.062Z,6.27
2017-11-13T13:30:29.364Z,5.23
2017-11-13T13:32:58.645Z,4.70
2017-11-13T13:35:26.979Z,4.43
2017-11-13T13:37:55.486Z,4.77
2017-11-13T13:40:23.852Z,5.00
2017-11-13T13:42:52.388Z,4.63
2017-11-13T13:45:21.684Z,4.77
2017-11-13T13:47:50.994Z,5.00
2017-11-13T13:50:19.562Z,5.60
2017-11-13T13:52:48.297Z,6.30
2017-11-13T13:55:16.891Z,5.97
2017-11-13T13:57:45.225Z,6.13
2017-11-13T14:00:14.452Z,7.33
2017-11-13T14:02:42.980Z,6.93
2017-11-13T14:05:11.488Z,7.20
2017-11-13T14:07:40.475Z,7.50
2017-11-13T14:10:09.009Z,9.00
2017-11-13T14:12:37.544Z,7.10
2017-11-13T14:15:06.825Z,7.30
2017-11-13T14:17:35.368Z,6.83
2017-11-13T14:20:03.877Z,6.30
2017-11-13T14:22:32.548Z,5.63
2017-11-13T14:25:01.137Z,5.37
2017-11-13T14:27:29.648Z,6.13
2017-11-13T14:29:57.997Z,5.03
2017-11-13T14:32:26.321Z,5.93
2017-11-13T14:34:54.836Z,5.40
2017-11-13T14:37:23.352Z,5.87
2017-11-13T14:39:51.865Z,5.40
2017-11-13T14:42:20.614Z,6.70
2017-11-13T14:44:49.240Z,5.90
2017-11-13T14:47:17.897Z,6.13
2017-11-13T14:49:46.517Z,6.70
2017-11-13T14:52:15.100Z,6.30
2017-11-13T14:54:43.762Z,6.83
2017-11-13T14:57:12.300Z,7.27
2017-11-13T14:59:40.828Z,8.20
2017-11-13T15:02:09.360Z,6.90
2017-11-13T15:04:38.622Z,6.30
2017-11-13T15:07:07.104Z,6.67
2017-11-13T15:09:35.572Z,6.50
2017-11-13T15:12:04.310Z,5.63
2017-11-13T15:14:33.568Z,5.60
2017-11-13T15:17:02.270Z,5.40
2017-11-13T15:19:30.754Z,5.60
2017-11-13T15:21:59.046Z,6.00
2017-11-13T15:24:27.341Z,5.57
2017-11-13T15:26:56.568Z,6.20
2017-11-13T15:29:24.877Z,5.80
2017-11-13T15:31:54.352Z,5.43
2017-11-13T15:34:23.148Z,6.20
2017-11-13T15:36:51.612Z,6.10
2017-11-13T15:39:20.097Z,6.50
2017-11-13T15:41:48.563Z,5.73
2017-11-13T15:44:17.807Z,5.97
2017-11-13T15:46:47.300Z,6.00
2017-11-13T15:49:16.829Z,5.85
2017-11-13T15:51:46.354Z,6.40
2017-11-13T15:54:14.833Z,7.87
2017-11-13T15:56:43.587Z,7.85
2017-11-13T15:59:12.092Z,8.80
2017-11-13T16:01:40.609Z,9.20
2017-11-13T16:04:09.385Z,8.23
2017-11-13T16:06:37.889Z,7.03
2017-11-13T16:09:07.238Z,8.27
2017-11-13T16:11:35.729Z,6.97
2017-11-13T16:14:03.860Z,6.87
2017-11-13T16:16:32.352Z,6.83
2017-11-13T16:19:01.161Z,5.90
2017-11-13T16:21:29.638Z,6.77
2017-11-13T16:23:58.122Z,7.73
2017-11-13T16:26:26.628Z,7.90
2017-11-13T16:28:54.942Z,8.07
2017-11-13T16:31:23.481Z,8.45
2017-11-13T16:33:52.824Z,6.70
2017-11-13T16:36:21.320Z,7.10
2017-11-13T16:38:50.129Z,8.97
2017-11-13T16:41:18.440Z,8.30
2017-11-13T16:43:46.917Z,9.10
2017-11-13T16:46:15.672Z,9.10
2017-11-13T16:48:44.425Z,8.32
2017-11-13T16:51:13.177Z,10.23
2017-11-13T16:53:41.674Z,11.63
2017-11-13T16:56:10.428Z,9.25
2017-11-13T16:58:38.920Z,9.20
2017-11-13T17:01:07.407Z,8.10
2017-11-13T17:03:36.913Z,7.97
2017-11-13T17:06:05.484Z,9.53
2017-11-13T17:08:33.972Z,7.77
2017-11-13T17:11:02.482Z,8.07
2017-11-13T17:13:31.097Z,9.00
2017-11-13T17:15:59.582Z,8.63
2017-11-13T17:18:28.332Z,8.83
2017-11-13T17:20:56.863Z,8.63
2017-11-13T17:23:25.357Z,7.80
2017-11-13T17:25:54.602Z,10.17
2017-11-13T17:28:24.119Z,8.93
2017-11-13T17:30:52.583Z,9.50
2017-11-13T17:33:21.086Z,10.60
2017-11-13T17:35:49.850Z,12.23
2017-11-13T17:38:18.352Z,10.50
2017-11-13T17:40:46.888Z,9.87
2017-11-13T17:43:15.389Z,9.60
2017-11-13T17:45:43.721Z,8.70
2017-11-13T17:48:12.465Z,7.68
2017-11-13T17:50:42.112Z,8.25
2017-11-13T17:53:10.611Z,7.90
2017-11-13T17:55:39.202Z,10.00
2017-11-13T17:58:08.477Z,10.40
2017-11-13T18:00:36.943Z,9.70
2017-11-13T18:03:05.436Z,10.23
2017-11-13T18:05:33.923Z,11.40
2017-11-13T18:08:02.423Z,10.37
2017-11-13T18:10:30.889Z,9.77
2017-11-13T18:12:59.360Z,9.47
2017-11-13T18:15:27.642Z,9.90
2017-11-13T18:17:56.112Z,9.07
2017-11-13T18:20:24.637Z,11.03
2017-11-13T18:22:53.484Z,10.45
2017-11-13T18:25:22.235Z,10.67
2017-11-13T18:27:51.464Z,11.00
2017-11-13T18:30:19.953Z,10.63
2017-11-13T18:32:48.503Z,11.03
2017-11-13T18:35:17.013Z,9.63
2017-11-13T18:37:45.521Z,11.10
2017-11-13T18:40:14.013Z,9.27
2017-11-13T18:42:46.423Z,12.00
2017-11-13T18:45:14.928Z,9.90
2017-11-13T18:47:43.434Z,11.67
2017-11-13T18:50:11.909Z,10.33
2017-11-13T18:52:40.756Z,12.10
2017-11-13T18:55:10.017Z,11.47
2017-11-13T18:57:39.020Z,10.87
2017-11-13T19:00:07.294Z,12.73
2017-11-13T19:02:36.805Z,12.63
2017-11-13T19:05:05.322Z,11.87
2017-11-13T19:07:34.575Z,13.13
2017-11-13T19:10:03.198Z,13.80
2017-11-13T19:12:32.287Z,12.50
2017-11-13T19:15:00.536Z,12.10
2017-11-13T19:17:29.062Z,11.87
2017-11-13T19:19:58.318Z,13.27
2017-11-13T19:22:26.816Z,14.07
2017-11-13T19:24:55.325Z,13.57
2017-11-13T19:27:24.769Z,14.23
2017-11-13T19:29:53.422Z,14.60
2017-11-13T19:32:22.704Z,15.47
2017-11-13T19:34:52.764Z,14.73
2017-11-13T19:37:21.280Z,14.60
2017-11-13T19:39:49.921Z,15.40
2017-11-13T19:42:19.189Z,14.50
2017-11-13T19:44:47.717Z,17.73
2017-11-13T19:47:16.220Z,14.43
2017-11-13T19:49:45.838Z,14.70
2017-11-13T19:52:14.428Z,15.40
2017-11-13T19:54:42.932Z,14.87
2017-11-13T19:57:11.463Z,14.13
2017-11-13T19:59:39.964Z,13.00
2017-11-13T20:02:08.487Z,13.57
2017-11-13T20:04:37.079Z,12.67
2017-11-13T20:07:06.500Z,13.60
2017-11-13T20:09:35.306Z,14.00
2017-11-13T20:12:04.215Z,14.40
2017-11-13T20:14:33.264Z,14.45
2017-11-13T20:17:02.048Z,13.50
2017-11-13T20:19:30.819Z,14.53
2017-11-13T20:21:59.911Z,14.05
2017-11-13T20:24:28.951Z,13.68
2017-11-13T20:26:57.629Z,14.33
2017-11-13T20:29:26.207Z,14.33
2017-11-13T20:31:55.520Z,15.00
2017-11-13T20:34:24.352Z,16.40
2017-11-13T20:36:53.268Z,14.85
2017-11-13T20:39:22.065Z,15.30
2017-11-13T20:41:50.576Z,15.80
2017-11-13T20:44:19.871Z,15.07
2017-11-13T20:46:49.181Z,16.20
2017-11-13T20:49:17.832Z,15.40
2017-11-13T20:51:46.411Z,15.13
2017-11-13T20:54:14.872Z,17.27
2017-11-13T20:56:43.396Z,16.93
2017-11-13T20:59:12.159Z,16.85
2017-11-13T21:01:40.747Z,17.55
2017-11-13T21:04:09.544Z,16.55
2017-11-13T21:06:38.043Z,15.80
2017-11-13T21:09:06.827Z,15.95
2017-11-13T21:11:35.611Z,16.42
2017-11-13T21:14:04.620Z,15.60
2017-11-13T21:16:33.438Z,14.18
2017-11-13T21:19:02.200Z,14.65
2017-11-13T21:21:30.976Z,12.95
2017-11-13T21:23:59.785Z,14.13
2017-11-13T21:26:28.559Z,14.60
2017-11-13T21:28:57.304Z,14.80
2017-11-13T21:31:26.832Z,14.18
2017-11-13T21:33:55.651Z,13.88
2017-11-13T21:36:24.412Z,15.00
2017-11-13T21:38:53.210Z,13.57
2017-11-13T21:41:22.227Z,15.05
2017-11-13T21:43:50.990Z,15.35
2017-11-13T21:46:19.770Z,15.18
2017-11-13T21:48:48.582Z,15.55
2017-11-13T21:51:17.371Z,14.95
2017-11-13T21:53:46.118Z,14.57
2017-11-13T21:56:14.875Z,14.75
2017-11-13T21:58:43.638Z,14.35
2017-11-13T22:01:12.425Z,12.25
2017-11-13T22:03:41.194Z,14.00
2017-11-13T22:06:09.976Z,14.13
2017-11-13T22:08:39.507Z,14.40
2017-11-13T22:11:08.005Z,16.77
2017-11-13T22:13:36.776Z,15.35
2017-11-13T22:16:05.248Z,15.85
2017-11-13T22:18:33.912Z,15.85
2017-11-13T22:21:03.260Z,13.45
2017-11-13T22:23:32.112Z,12.02
2017-11-13T22:26:01.663Z,12.52
2017-11-13T22:28:30.467Z,12.93
2017-11-13T22:30:59.240Z,12.93
2017-11-13T22:33:27.327Z,13.15
2017-11-13T22:35:55.916Z,12.63
2017-11-13T22:38:24.505Z,13.40
2017-11-13T22:40:53.088Z,16.05
2017-11-13T22:43:22.669Z,14.02
2017-11-13T22:45:51.364Z,13.73
2017-11-13T22:48:20.129Z,12.00
2017-11-13T22:50:48.900Z,13.75
2017-11-13T22:53:17.709Z,11.95
2017-11-13T22:55:46.488Z,13.10
2017-11-13T22:58:15.263Z,12.75
2017-11-13T23:00:44.792Z,12.45
2017-11-13T23:03:13.538Z,12.43
2017-11-13T23:05:42.356Z,12.63
2017-11-13T23:08:11.361Z,14.82
2017-11-13T23:10:40.139Z,12.80
2017-11-13T23:13:08.897Z,12.45
2017-11-13T23:15:37.666Z,13.75
2017-11-13T23:18:06.423Z,11.30
2017-11-13T23:20:35.196Z,12.00
2017-11-13T23:23:04.740Z,10.73
2017-11-13T23:25:33.500Z,11.12
2017-11-13T23:28:02.262Z,12.85
2017-11-13T23:30:31.028Z,13.05
2017-11-13T23:32:59.815Z,14.75
2017-11-13T23:35:28.677Z,14.30
2017-11-13T23:37:57.453Z,15.52
2017-11-13T23:40:26.973Z,13.65
2017-11-13T23:42:55.744Z,13.50
2017-11-13T23:45:24.487Z,14.80
2017-11-13T23:47:53.253Z,13.52
2017-11-13T23:50:22.648Z,15.50
2017-11-13T23:52:51.419Z,13.90
2017-11-13T23:55:20.743Z,14.87
2017-11-13T23:57:49.500Z,15.55
